ACT        NSW        VIC        QLD        SA        WA        TAS        NT        INFO        CALC            by VK5ZD

Past Date/Time: (dd/mm/yyyy hh:mm or blank for current data)    

  Atmospheric Gas Attenuation - ITU Rec 676-11   --------------- dB/100km ---------------
WA Stations Date Time Temp RH % AH g/m3 Dew Point Wind Direction Speed kph Gust kph Barometer mB Rainfall Since 9am 24GHz 47GHz 76GHz 122GHz 134GHz 241GHz
Albany Airport 03/09 01:20 11.1 97 9.77 10.6 7 9 1020.3 2.4 22.2 29.0 46.5 122.2 119.0 410.0
Badgingarra 03/09 01:20 8.3 87 7.34 6.2 0 0 1013.1 0 17.1 25.4 37.3 97.8 88.1 301.8
Barimunya 03/09 01:20 23.8 30 6.45 5.2 17 20 1013.1 0 14.6 20.2 27.9 72.8 62.8 214.9
Barrow Island 03/09 01:20 24.1 70 15.32 18.3 26 33 1015.3 0 33.2 33.8 61.4 162.2 172.9 599.9
Bickley 03/09 01:20 11.2 97 9.83 10.7 6 7 1013.1 3.8 22.4 28.8 46.4 121.9 119.0 410.1
Boolgeeda 03/09 01:20 21.6 34 6.45 5.1 7 11 1016.3 0 14.7 20.8 28.8 75.1 64.7 221.3
Bridgetown 03/09 01:20 8.6 98 8.42 8.3 2 4 1020.4 0.6 19.4 27.4 42.1 110.4 103.3 355.0
Broome 03/09 01:20 24.3 92 20.36 22.9 11 15 1015.3 0 43.9 43.1 84.7 224.0 248.8 864.3
Bunbury 03/09 01:20 8.6 100 8.6 8.7 2 2 1020.3 0.4 19.8 27.7 42.9 112.4 105.9 363.9
Busselton Airport 03/09 01:20 6.2 100 7.36 6.2 9 9 1020.3 1.2 17.3 26.3 38.8 101.5 91.4 312.9
Cape Leeuwin 03/09 01:20 13 89 10.09 11.2 17 22 1020.1 0.8 22.8 28.9 46.8 122.9 120.5 415.7
Cape Naturaliste 03/09 01:20 12 92 9.81 10.7 11 13 1020 1.2 22.3 28.7 46.1 121.3 118.1 407.1
Carnarvon 03/09 01:20 17.2 78 11.42 13.3 26 32 1020 0 25.4 29.8 49.8 131.2 132.3 457.3
Christmas Creek 03/09 01:20 27 20 5.15 2.1 7 11 1014.9 0 11.8 18.0 23.0 59.7 47.5 161.4
Christmas Island 03/09 01:20 23.4 90 18.92 21.7 20 32 1015 0 40.9 40.7 78.6 207.8 228.7 794.0
Collie East 03/09 01:20 7.9 99 8.14 7.8 0 0 1013.1 0.8 18.9 26.9 40.9 107.3 99.7 342.3
Coondewanna 03/09 01:20 17.3 39 5.75 3.2 7 9 1013.1 0 13.4 20.7 27.8 72.3 60.0 204.4
Cunderdin Airport 03/09 01:20 11 91 9.11 9.6 9 9 1021.3 0 20.8 27.9 43.8 114.9 109.8 378.0
Curtin 03/09 01:20 20.5 67 11.92 14.2 15 17 1014.3 0 26.3 29.3 49.6 130.6 132.8 459.8
Dalwallinu 03/09 01:20 6.3 91 6.74 4.9 0 0 1021.1 0 15.9 25.3 36.1 94.5 82.8 282.6
Derby 03/09 01:20 22.1 70 13.66 16.4 11 17 1015.4 0 29.9 31.7 55.8 147.2 153.8 533.2
Dwellingup 03/09 01:20 8 97 8.02 7.6 0 0 1020.6 9.2 18.6 26.9 40.7 106.6 98.5 338.0
Eliwana Airport 03/09 01:20 22.8 33 6.71 5.7 9 15 1013.1 0 15.2 20.8 29.1 76.0 66.4 227.4
Esperance 03/09 01:20 13 94 10.66 12.1 7 9 1020.2 0.4 24.0 29.9 49.2 129.5 128.7 444.2
Esperance Airport 03/09 01:20 11.9 96 10.17 11.3 9 9 1020.5 1.8 23.0 29.4 47.8 125.7 123.5 425.8
Eucla 03/09 01:20 11.9 89 9.43 10.1 9 9 1019.4 0 21.5 28.1 44.5 117.0 112.8 388.7
Fitzroy Crossing 03/09 01:20 20 32 5.53 2.8 13 15 1014.7 0 12.9 19.9 26.2 68.2 55.8 189.7
Forrest 03/09 01:20 11.2 76 7.7 7.1 1019.3 0 17.8 25.4 37.7 98.8 90.1 309.1
Fortescue Dave Forrest 03/09 01:20 24.8 25 5.69 3.5 6 6 1013.1 0 13.0 19.1 25.2 65.6 54.2 184.6
Garden Island 03/09 01:20 13.8 99 11.8 13.6 7 20 1021 5.6 26.4 31.7 53.8 141.8 144.0 497.8
Geraldton Airport 03/09 01:20 8.1 92 7.66 6.9 13 15 1021.7 0 17.8 26.3 39.2 102.6 93.4 320.2
Gerangamete (Cfa) 03/09 03:20 10.2 84 8 7.6 24 30 1013.1 0 18.5 26.0 39.1 102.7 94.9 325.6
Giles* 03/09 03:00 23.4 27 5.68 3.4 13 13 1015.2 0 13.1 19.4 25.7 66.8 55.1 187.7
Gingin Airport 03/09 01:20 12.8 95 10.64 12 6 7 1021.3 0.2 24.0 30.0 49.3 129.8 128.8 444.7
Golden Grove 03/09 01:20 8.9 73 6.4 4.3 9 11 1013.1 0 15.1 23.7 33.3 87.0 75.0 256.0
Gooseberry Hill 03/09 01:20 12.1 101 10.83 12.1 7 9 1013.1 0 24.5 30.2 50.2 132.2 132.0 455.6
Gudai-Darri Mine 03/09 01:20 24.9 23 5.26 2.4 9 13 1013.1 0 12.1 18.5 23.9 62.0 49.7 169.0
Halls Creek 03/09 03:00 15.4 49 6.44 4.8 6 7 1015.7 0 14.9 22.2 31.0 80.8 69.7 238.2
Hopetoun North 03/09 01:20 13.1 98 11.18 12.8 0 0 1019.9 5.6 25.2 30.8 51.5 135.5 136.0 469.9
Iron Bridge Mine 03/09 01:20 21.1 37 6.82 5.9 2 2 1013.1 0 15.5 21.3 30.1 78.6 69.0 236.5
Jacup 03/09 01:20 10.4 97 9.35 9.9 0 0 1020.4 2.6 21.4 28.5 45.1 118.5 114.0 392.6
Jandakot 03/09 01:20 12.8 97 10.87 12.3 11 13 1020.9 2 24.5 30.4 50.3 132.4 132.1 456.3
Kalgoorlie-Boulder 03/09 01:20 7.6 79 6.37 4.2 7 11 1020 0 15.1 24.3 34.0 88.8 76.4 260.4
Kalumburu 03/09 03:00 18.6 95 15.12 17.8 0 0 1016.1 0 33.3 35.7 65.1 171.9 183.0 634.4
Karijini North 03/09 01:20 26.5 19 4.76 1 28 37 1014.6 0 11.1 17.6 22.0 57.0 44.0 148.9
Karratha 03/09 01:20 22.6 85 17.07 19.9 19 24 1014.9 0 37.1 37.6 70.6 186.5 202.3 702.1
Katanning Rs 03/09 01:20 9.2 96 8.58 8.6 0 0 1020.4 0.8 19.8 27.5 42.4 111.3 104.8 360.2
Koolan Island / Koolan Central 03/09 01:20 24.4 88 19.58 22.3 13 17 1013.1 0 42.3 41.4 80.6 213.2 235.7 818.5
Kununurra Airport 03/09 03:00 17.1 81 11.79 13.8 0 2 1015.4 0 26.2 30.3 51.3 135.0 137.1 474.3
Lake Grace 03/09 01:20 12.2 96 10.36 11.6 0 0 1020.3 0.8 23.4 29.7 48.4 127.4 125.7 433.7
Lancelin (Defence) 03/09 01:20 16.6 91 12.85 15.1 9 15 1020.8 0 28.5 32.5 56.6 149.1 154.0 533.0
Laverton 03/09 01:20 13.1 58 6.62 5 13 17 1018.9 0 15.4 23.2 32.7 85.3 74.2 253.6
Learmonth 03/09 01:20 17.8 64 9.71 10.9 17 20 1017.9 0 21.7 26.7 42.4 111.3 108.1 372.8
Legendre Island 03/09 01:20 22.6 88 17.68 20.5 17 19 1015.3 0 38.4 38.8 73.5 194.2 211.7 734.9
Leinster 03/09 01:20 13.5 56 6.55 4.9 15 20 1018 0 15.2 22.9 32.2 84.1 72.9 249.1
Leonora Airport 03/09 01:20 12.1 57 6.11 3.9 11 15 1019 0 14.4 22.7 31.1 81.2 68.8 234.5
Lombadina 03/09 01:20 24.9 81 18.54 21.4 13 17 1013.1 0 40.0 39.2 75.1 198.7 218.0 757.1
Mandora 03/09 01:20 21.4 97 18.18 20.9 2 7 1014.9 0 39.6 40.3 77.0 203.7 223.0 774.0
Mandurah 03/09 01:20 14.5 89 11.07 12.7 7 9 1020.4 2 24.8 30.1 50.1 131.8 132.0 456.1
Manjimup 03/09 01:20 10.3 99 9.48 10.1 6 7 1020.2 2.4 21.7 28.7 45.7 120.1 116.0 399.6
Marble Bar 03/09 01:20 25 29 6.68 5.7 6 7 1014.2 0 15.1 20.3 28.3 73.9 64.4 220.6
Mardie 03/09 01:20 19.6 89 15.02 17.7 6 7 1015.1 0 33.0 35.1 63.7 168.3 178.9 620.4
Meekatharra 03/09 01:20 14.8 60 7.6 7.1 15 19 1017.8 0 17.4 24.2 35.6 93.2 84.7 290.5
Millendon (Swan Valley) 03/09 01:20 13.3 97 11.21 12.8 4 7 1020.9 1.2 25.2 30.8 51.5 135.6 136.2 470.6
Morawa Airport 03/09 01:20 6 86 6.25 3.8 0 0 1021.7 0 14.9 24.6 34.3 89.5 76.4 260.4
Mount Keith 03/09 01:20 14.3 60 7.37 6.6 11 13 1013.1 0 16.9 23.8 34.8 91.0 82.0 281.1
Mount Magnet Airport 03/09 01:20 9.9 77 7.19 6.1 9 13 1020 0 16.7 25.0 36.3 94.9 84.9 290.4
Munglinup West 03/09 01:20 11.7 96 10.04 11.1 4 9 1020.3 2.6 22.8 29.3 47.3 124.4 121.9 420.3
Newdegate 03/09 01:20 11 92 9.21 9.8 11 17 1020.2 1.8 21.0 28.0 44.1 115.9 111.1 382.6
Newman Airport 03/09 01:20 22 33 6.4 5 11 13 1015.6 0 14.6 20.6 28.4 74.2 63.8 218.2
Norseman Airport 03/09 01:20 11.1 76 7.66 7 0 0 1019.9 0 17.7 25.4 37.6 98.5 89.7 307.7
North Island 03/09 01:20 17 57 8.25 8.4 17 22 1021.8 0 18.7 24.8 37.3 97.6 90.7 311.8
Onslow Airport 03/09 01:20 21.8 48 9.21 10.3 20 26 1016.7 0 20.5 24.7 38.4 100.8 96.5 332.7
Paraburdoo 03/09 01:20 21.8 32 6.14 4.4 7 9 1016 0 14.1 20.4 27.7 72.1 61.2 208.8
Pearce 03/09 01:20 13.2 94 10.79 12.3 13 15 1020.8 2 24.3 30.1 49.7 130.8 130.3 449.8
Perth 03/09 01:20 13.3 99 11.44 13.1 7 9 1021 1.4 25.7 31.2 52.6 138.4 139.6 482.4
Perth Airport 03/09 01:20 13.3 97 11.21 12.8 9 11 1020.7 1.2 25.2 30.8 51.5 135.6 136.2 470.5
Port Hedland 03/09 01:20 22 90 17.47 20.3 17 20 1014.4 0 38.0 38.6 73.0 193.0 210.0 728.9
Portable Btsa (Dfes) 03/09 01:10 13.4 66 7.67 7.3 7 9 1013.1 0 17.6 24.5 36.3 95.1 86.8 297.7
Portable Btsd (Dfes) 03/09 01:10 8.5 78 6.66 5 9 9 1013.1 0 15.7 24.2 34.5 90.2 78.8 269.2
Portable Btse (Dfes) 03/09 01:10 14.3 67 8.23 8.2 7 11 1013.1 0 18.8 25.2 38.1 99.9 92.9 319.4
Portable Btsf (Dfes) 03/09 01:00 17.5 56 8.35 8.8 11 15 1013.1 0 18.9 24.5 37.0 97.1 90.7 312.0
Portable Btsh (Dfes) 03/09 00:50 6.5 15 1.13 -18.2 0 0 1013.1 0 4.0 16.7 15.3 38.9 14.5 42.6
Portable Btsj (Dfes) 03/09 01:10 12.7 100 11.13 12.7 4 6 1013.1 2 25.1 30.6 51.2 134.7 135.3 467.4
Portable Btsl (Dfes) 03/09 01:10 4.5 77 5.07 0.8 2 4 1013.1 0 12.4 22.7 29.8 77.6 61.6 208.3
Portable Btsm (Dfes) 03/09 01:10 18.2 36 5.6 2.9 4 4 1013.1 0 13.1 20.3 27.0 70.2 57.7 196.3
Portable Btsn (Dfes) 03/09 01:10 12.4 59 6.45 4.7 11 13 1013.1 0 15.1 22.9 32.1 83.8 72.4 247.1
Portable Btso (Dfes) 03/09 01:10 8.5 96 8.2 7.9 0 0 1013.1 1.2 19.0 26.8 40.8 107.2 99.8 342.5
Red Rocks Point 03/09 01:20 9.7 95 8.76 8.9 15 17 1019.6 0 20.1 27.6 42.9 112.6 106.6 366.5
Rocky Gully South 03/09 01:20 10 95 8.93 9.2 0 0 1013.1 3 20.5 27.6 43.2 113.4 108.0 371.5
Roebourne Airport 03/09 01:20 21.1 65 11.98 14.3 15 17 1014.9 0 26.4 29.2 49.5 130.3 132.7 459.3
Rottnest Island 03/09 01:20 13.4 89 10.35 11.6 0 4 1020.6 2 23.3 29.2 47.7 125.3 123.6 426.6
Salmon Gums Rs 03/09 01:20 11.5 98 10.12 11.2 4 6 1013.1 0 23.0 29.2 47.4 124.8 122.7 423.1
Shannon 03/09 01:20 10.2 100 9.52 10.2 9 11 1013.1 4 21.8 28.6 45.6 119.9 116.1 399.9
Shark Bay Airport 03/09 01:20 13.2 85 9.76 10.7 11 15 1020.5 0 22.1 28.3 45.2 118.9 115.6 398.6
Solomon Airport 03/09 01:20 19.6 28 4.73 0.6 2 6 1016.7 0 11.2 19.0 23.8 61.7 47.6 160.8
Southern Cross Airport 03/09 01:20 5.7 97 6.91 5.3 6 6 1020.8 0 16.3 25.7 37.1 97.1 85.7 293.0
Swanbourne 03/09 01:20 12.8 101 11.31 12.8 6 6 1013.1 0.6 25.5 30.8 51.9 136.7 137.8 476.0
Telfer 03/09 01:20 26.9 24 6.14 4.6 19 24 1013.9 0 13.9 19.2 26.0 67.7 57.4 196.1
Thevenard Island 03/09 01:20 22.7 56 11.31 13.5 30 35 1016.3 0 24.9 27.7 45.9 120.8 121.4 420.1
Troughton Island 03/09 03:00 25.2 85 19.79 22.5 15 17 1016 0 42.6 41.6 80.9 214.1 236.9 822.9
Truscott 03/09 03:00 21.3 94 17.52 20.3 0 0 1015.6 0 38.2 39.1 74.0 195.6 213.0 739.1
Walpole North 03/09 01:20 10.5 97 9.41 10 6 7 1019.8 0.6 21.5 28.5 45.3 118.9 114.7 394.9
Wandering 03/09 01:20 11 97 9.71 10.5 6 7 1013.1 0.2 22.1 28.6 46.0 120.9 117.6 405.2
Warburton 03/09 03:00 19.8 46 7.86 7.9 7 11 1016.3 0 17.7 23.2 34.4 89.9 82.5 283.4
West Angelas 03/09 01:20 20.6 36 6.44 5 7 11 1016.8 0 14.7 21.1 29.1 75.9 65.4 223.7
West Musgrave Airport 03/09 01:20 20.7 40 7.2 6.6 11 13 1013.1 0 16.3 22.0 31.5 82.5 73.7 252.8
Wiluna Airport 03/09 01:20 16 56 7.63 7.2 13 17 1017.7 0 17.4 23.9 35.2 92.1 83.8 287.5
Witchcliffe West 03/09 01:20 8.9 98 8.59 8.6 7 11 1020.1 1.6 19.8 27.6 42.6 111.9 105.3 362.0
Wyndham Airport 03/09 03:00 19.6 54 9.12 10 7 9 1015.2 0 20.4 25.1 39.0 102.5 97.9 337.6
Yampi Sound (Defence) 03/09 01:20 22.1 75 14.64 17.6 0 0 1019.3 0 31.9 33.6 60.3 159.0 168.1 583.1

Last Refresh: 03-Sep-2026 03:04:42

Bureau of Meteorology